Time;durP1;ratioP1;P1;durP2;ratioP2;P2;SDS_P1;SDS_P2;PMS_P1;PMS_P2;Temp;Humidity;BMP_temperature;BMP_pressure;BME280_temperature;BME280_humidity;BME280_pressure;Samples;Min_cycle;Max_cycle;Signal;HPM_P1;HPM_P2
2022/07/30 00:00:00;;;;;;;3.75;2.25;;;;;;;21.57;59.80;99882.21;1728714;83;21004;-82
2022/07/30 00:02:28;;;;;;;6.03;2.33;;;;;;;21.55;59.83;99880.60;1728751;83;21674;-80
2022/07/30 00:04:55;;;;;;;3.42;2.45;;;;;;;21.51;60.08;99891.53;1728926;83;20997;-83
2022/07/30 00:07:22;;;;;;;4.42;2.52;;;;;;;21.48;60.05;99888.23;1729113;83;21091;-83
2022/07/30 00:09:50;;;;;;;4.58;2.35;;;;;;;21.46;59.93;99886.97;1728781;83;21126;-83
2022/07/30 00:12:17;;;;;;;4.45;2.55;;;;;;;21.45;60.09;99886.63;1728846;83;21624;-83
2022/07/30 00:14:44;;;;;;;4.78;2.55;;;;;;;21.43;60.30;99882.34;1728692;83;21042;-83
2022/07/30 00:17:11;;;;;;;6.10;2.20;;;;;;;21.40;60.47;99879.88;1728990;83;21028;-79
2022/07/30 00:19:40;;;;;;;5.10;2.50;;;;;;;21.36;60.50;99881.94;1728823;83;21097;-82
2022/07/30 00:22:07;;;;;;;3.77;2.60;;;;;;;21.34;60.67;99881.20;1728558;83;21052;-82
2022/07/30 00:24:35;;;;;;;4.95;2.58;;;;;;;21.30;60.79;99877.90;1728832;83;21071;-83
2022/07/30 00:27:02;;;;;;;3.52;2.60;;;;;;;21.27;61.04;99870.09;1728674;83;21079;-82
2022/07/30 00:29:29;;;;;;;5.65;1.90;;;;;;;21.24;61.26;99870.31;1728965;83;20973;-82
2022/07/30 00:31:56;;;;;;;4.87;2.40;;;;;;;21.19;61.20;99868.95;1728693;83;21135;-79
2022/07/30 00:34:23;;;;;;;5.47;2.25;;;;;;;21.16;61.18;99878.05;1728647;83;20962;-81
2022/07/30 00:36:52;;;;;;;9.45;2.47;;;;;;;21.13;61.07;99868.44;1729206;83;21633;-81
2022/07/30 00:39:20;;;;;;;2.67;2.20;;;;;;;21.10;61.11;99869.99;1741300;81;21016;-83
2022/07/30 00:41:55;;;;;;;8.93;2.40;;;;;;;21.09;61.40;99869.61;1762257;81;21527;-82
2022/07/30 00:44:21;;;;;;;;;;;;;;;21.05;61.29;99869.47;1764940;81;21687;-83
2022/07/30 00:46:48;;;;;;;6.42;2.22;;;;;;;21.03;61.28;99863.39;1762342;81;20747;-83
2022/07/30 00:49:15;;;;;;;3.98;2.17;;;;;;;20.99;61.55;99859.21;1762293;81;21029;-82
2022/07/30 00:51:43;;;;;;;4.75;2.33;;;;;;;20.96;61.58;99860.77;1762194;81;21547;-83
2022/07/30 00:54:10;;;;;;;4.20;2.30;;;;;;;20.94;61.68;99865.38;1762298;81;21509;-81
2022/07/30 00:56:37;;;;;;;4.33;2.47;;;;;;;20.93;61.96;99864.99;1762491;81;21271;-82
2022/07/30 00:59:04;;;;;;;3.12;2.20;;;;;;;20.90;61.98;99857.22;1762520;81;21290;-83
2022/07/30 01:01:32;;;;;;;2.90;2.10;;;;;;;20.88;62.23;99860.45;1762385;81;21527;-82
2022/07/30 01:04:01;;;;;;;8.73;2.40;;;;;;;20.85;62.38;99861.55;1762537;81;21029;-77
2022/07/30 01:06:27;;;;;;;5.12;2.60;;;;;;;20.83;62.75;99856.80;1763113;81;21043;-83
2022/07/30 01:08:54;;;;;;;6.20;2.40;;;;;;;20.80;62.62;99856.17;1762626;81;21574;-83
2022/07/30 01:11:23;;;;;;;5.00;2.20;;;;;;;20.76;63.04;99859.06;1762877;81;21071;-84
2022/07/30 01:13:49;;;;;;;3.27;2.25;;;;;;;20.72;63.32;99853.55;1762884;81;21124;-83
2022/07/30 01:16:17;;;;;;;3.02;2.30;;;;;;;20.68;63.62;99845.39;1762657;81;21043;-82
2022/07/30 01:21:36;;;;;;;4.12;2.47;;;;;;;20.61;63.80;99846.77;1740911;81;21247;-84
2022/07/30 01:24:29;;;;;;;2.92;2.25;;;;;;;20.60;63.73;99843.70;1740365;81;21020;-80
2022/07/30 01:26:56;;;;;;;4.67;2.10;;;;;;;20.58;63.69;99844.30;1753734;81;21021;-83
2022/07/30 01:29:23;;;;;;;5.28;2.55;;;;;;;20.57;63.67;99836.74;1762885;81;21072;-84
2022/07/30 01:31:54;;;;;;;4.85;2.70;;;;;;;20.56;63.88;99842.19;1762487;81;22208;-82
2022/07/30 01:34:20;;;;;;;5.42;2.83;;;;;;;20.54;64.27;99832.09;1762484;81;21157;-81
2022/07/30 01:36:47;;;;;;;3.20;2.35;;;;;;;20.50;64.41;99830.63;1762680;81;21123;-81
2022/07/30 01:39:13;;;;;;;4.67;2.58;;;;;;;20.47;64.83;99834.84;1749849;81;21073;-81
2022/07/30 01:41:39;;;;;;;12.18;2.50;;;;;;;20.43;64.55;99834.21;1678418;84;21530;-83
2022/07/30 01:44:06;;;;;;;2.85;2.60;;;;;;;20.39;64.85;99837.58;1709987;82;21194;-83
2022/07/30 01:46:34;;;;;;;3.62;2.25;;;;;;;20.37;64.87;99838.15;1726130;82;21634;-82
2022/07/30 01:49:02;;;;;;;6.05;2.62;;;;;;;20.34;65.20;99833.50;1725559;82;21590;-83
2022/07/30 01:51:32;;;;;;;2.80;2.60;;;;;;;20.29;65.29;99836.52;1726075;83;21006;-81
2022/07/30 01:53:58;;;;;;;4.60;2.37;;;;;;;20.27;65.21;99830.41;1726062;82;21128;-84
2022/07/30 01:56:25;;;;;;;3.27;2.47;;;;;;;20.25;65.13;99828.33;1726072;83;21127;-82
2022/07/30 01:58:53;;;;;;;5.10;2.20;;;;;;;20.25;65.38;99830.16;1725936;83;21131;-84
2022/07/30 02:01:23;;;;;;;6.35;2.70;;;;;;;20.20;65.54;99830.47;1725897;82;21068;-81
2022/07/30 02:03:52;;;;;;;5.97;2.52;;;;;;;20.16;65.58;99828.98;1726143;82;20985;-82
2022/07/30 02:06:22;;;;;;;3.98;2.50;;;;;;;20.14;65.46;99821.08;1726241;83;21287;-83
2022/07/30 02:08:56;;;;;;;3.98;2.47;;;;;;;20.13;65.49;99825.19;1726136;82;21701;-83
2022/07/30 02:14:21;;;;;;;4.00;2.50;;;;;;;20.09;66.08;99827.69;1725573;82;20985;-83
2022/07/30 02:16:55;;;;;;;3.47;2.33;;;;;;;20.06;66.07;99829.25;1726075;83;21056;-84
2022/07/30 02:19:25;;;;;;;2.60;2.40;;;;;;;20.02;66.51;99836.59;1729753;82;21000;-83
2022/07/30 02:22:05;;;;;;;3.05;2.30;;;;;;;19.99;66.77;99835.02;1725931;82;21508;-81
2022/07/30 02:24:33;;;;;;;5.20;2.87;;;;;;;19.99;66.58;99831.00;1726388;82;21542;-83
2022/07/30 02:27:16;;;;;;;5.42;2.52;;;;;;;19.97;66.99;99827.59;1725889;83;21583;-83
2022/07/30 02:29:43;;;;;;;5.73;2.83;;;;;;;19.95;67.09;99824.63;1725941;83;21085;-81
2022/07/30 02:32:14;;;;;;;5.62;2.75;;;;;;;19.93;67.08;99827.90;1726004;83;21505;-84
2022/07/30 02:34:41;;;;;;;3.67;2.62;;;;;;;19.93;67.26;99831.91;1726203;83;21071;-81
2022/07/30 02:37:09;;;;;;;4.25;2.58;;;;;;;19.90;67.29;99831.62;1726363;82;21146;-84
2022/07/30 02:39:37;;;;;;;3.58;2.55;;;;;;;19.88;67.24;99835.38;1734765;81;21004;-83
2022/07/30 02:42:05;;;;;;;3.05;2.67;;;;;;;19.84;67.64;99837.40;1762309;81;21048;-83
2022/07/30 02:44:33;;;;;;;6.10;2.62;;;;;;;19.77;67.72;99841.42;1762087;80;21036;-83
2022/07/30 02:47:00;;;;;;;2.67;2.47;;;;;;;19.75;67.84;99838.86;1766474;81;21001;-83
2022/07/30 02:49:30;;;;;;;5.92;2.67;;;;;;;19.70;67.96;99848.11;1762106;81;21286;-84
2022/07/30 02:51:57;;;;;;;5.80;2.67;;;;;;;19.64;68.26;99844.90;1762265;81;20960;-82
2022/07/30 02:54:23;;;;;;;9.53;2.75;;;;;;;19.59;68.71;99844.35;1762026;81;21508;-82
2022/07/30 02:56:51;;;;;;;8.88;2.83;;;;;;;19.53;68.94;99850.09;1761898;81;21516;-83
2022/07/30 02:59:19;;;;;;;7.95;2.45;;;;;;;19.51;69.20;99849.34;1762024;81;21500;-83
2022/07/30 03:01:46;;;;;;;4.20;2.60;;;;;;;19.51;69.37;99852.50;1762871;80;21040;-84
2022/07/30 03:04:12;;;;;;;10.98;3.30;;;;;;;19.52;69.59;99851.06;1762104;81;21143;-81
2022/07/30 03:06:40;;;;;;;5.30;2.60;;;;;;;19.54;69.74;99854.97;1761895;81;20982;-81
2022/07/30 03:09:08;;;;;;;6.08;2.70;;;;;;;19.55;69.90;99850.87;1762244;80;21044;-77
2022/07/30 03:11:36;;;;;;;7.92;2.80;;;;;;;19.57;70.22;99850.28;1762225;81;21496;-82
2022/07/30 03:14:06;;;;;;;5.55;2.50;;;;;;;19.58;70.38;99847.97;1762471;81;21123;-83
2022/07/30 03:16:36;;;;;;;4.80;3.08;;;;;;;19.59;70.47;99847.51;1762001;81;21084;-82
2022/07/30 03:19:02;;;;;;;7.33;2.58;;;;;;;19.61;70.87;99846.92;1741438;81;21048;-82
2022/07/30 03:21:29;;;;;;;5.65;2.62;;;;;;;19.63;70.85;99848.52;1761528;81;21045;-83
2022/07/30 03:23:57;;;;;;;4.53;2.55;;;;;;;19.67;71.13;99849.19;1766210;81;21071;-83
2022/07/30 03:26:25;;;;;;;5.78;3.08;;;;;;;19.71;70.93;99851.17;1761017;81;21630;-82
2022/07/30 03:28:53;;;;;;;3.20;2.58;;;;;;;19.75;70.41;99854.03;1762352;81;21628;-83
2022/07/30 03:31:20;;;;;;;3.22;2.42;;;;;;;19.81;69.99;99845.61;1762440;81;21887;-80
2022/07/30 03:33:47;;;;;;;6.35;2.62;;;;;;;19.85;69.79;99849.77;1762221;81;21463;-83
2022/07/30 03:36:15;;;;;;;5.12;2.35;;;;;;;19.90;69.55;99848.98;1762702;80;21312;-80
2022/07/30 03:38:41;;;;;;;2.90;2.10;;;;;;;19.91;69.22;99852.03;1762436;80;21113;-83
2022/07/30 03:41:10;;;;;;;3.98;2.60;;;;;;;19.95;68.59;99846.84;1761950;81;21123;-81
2022/07/30 03:43:38;;;;;;;5.72;2.70;;;;;;;20.00;68.16;99846.05;1743500;80;21041;-82
2022/07/30 03:46:05;;;;;;;14.75;3.08;;;;;;;20.04;68.28;99847.56;1736095;80;21079;-79
2022/07/30 03:48:35;;;;;;;5.08;2.50;;;;;;;20.08;67.95;99850.03;1762305;81;21507;-82
2022/07/30 03:51:03;;;;;;;3.25;2.50;;;;;;;20.12;67.14;99849.69;1762522;81;21108;-84
2022/07/30 03:53:30;;;;;;;6.10;2.50;;;;;;;20.17;66.76;99854.72;1762357;80;21059;-81
2022/07/30 03:56:15;;;;;;;2.22;2.02;;;;;;;20.20;66.61;99846.50;1762561;80;21174;-82
2022/07/30 03:59:03;;;;;;;2.72;1.87;;;;;;;20.24;66.40;99856.03;1761787;81;21131;-84
2022/07/30 04:01:30;;;;;;;5.15;2.25;;;;;;;20.27;66.15;99850.45;1762774;80;21139;-83
2022/07/30 04:04:09;;;;;;;4.10;2.20;;;;;;;20.29;65.84;99848.55;1761823;81;21060;-81
2022/07/30 04:06:39;;;;;;;5.20;2.10;;;;;;;20.33;65.44;99838.50;1762269;81;21039;-81
2022/07/30 04:09:09;;;;;;;3.30;2.02;;;;;;;20.35;64.94;99844.58;1762245;80;21341;-82
2022/07/30 04:11:38;;;;;;;5.95;2.22;;;;;;;20.36;64.06;99847.15;1740466;81;21071;-81
2022/07/30 04:14:06;;;;;;;2.87;1.90;;;;;;;20.39;63.66;99840.72;1762504;81;21037;-81
2022/07/30 04:16:59;;;;;;;5.37;1.95;;;;;;;20.40;63.07;99840.61;1759048;81;21566;-84
2022/07/30 04:19:46;;;;;;;5.87;1.72;;;;;;;20.43;62.55;99844.05;1762133;81;21048;-84
2022/07/30 04:22:29;;;;;;;7.28;1.98;;;;;;;20.44;62.10;99838.57;1762093;81;21119;-84
2022/07/30 04:25:00;;;;;;;8.63;2.08;;;;;;;20.47;62.21;99834.84;1762540;81;21060;-81
2022/07/30 04:27:28;;;;;;;4.20;1.77;;;;;;;20.49;61.70;99840.92;1762087;81;21047;-82
2022/07/30 04:29:55;;;;;;;4.85;1.70;;;;;;;20.53;60.89;99839.77;1762087;81;21738;-82
2022/07/30 04:32:22;;;;;;;6.95;1.75;;;;;;;20.55;60.41;99840.50;1761733;81;21980;-83
2022/07/30 04:34:52;;;;;;;5.85;1.95;;;;;;;20.59;60.61;99844.66;1762031;81;21028;-82
2022/07/30 04:37:24;;;;;;;3.80;1.57;;;;;;;20.64;59.82;99838.53;1760413;81;21067;-82
2022/07/30 04:39:56;;;;;;;3.95;1.72;;;;;;;20.69;59.67;99842.22;1762609;80;21559;-84
2022/07/30 04:42:26;;;;;;;6.33;1.92;;;;;;;20.73;59.75;99838.38;1762138;81;21125;-83
2022/07/30 04:44:57;;;;;;;8.50;1.80;;;;;;;20.77;59.44;99846.05;1754577;79;21004;-82
2022/07/30 04:47:28;;;;;;;9.40;1.75;;;;;;;20.81;59.02;99837.80;1761121;81;22147;-82
2022/07/30 04:50:13;;;;;;;3.60;1.70;;;;;;;20.88;58.96;99839.06;1760109;81;21051;-80
2022/07/30 04:52:40;;;;;;;9.35;2.10;;;;;;;20.88;58.96;99839.06;1762930;80;21473;-82
2022/07/30 04:55:08;;;;;;;6.28;2.00;;;;;;;20.92;58.86;99836.06;1716335;81;21025;-83
2022/07/30 04:57:37;;;;;;;3.87;1.67;;;;;;;20.98;58.59;99832.11;1762110;80;21025;-81
2022/07/30 05:00:06;;;;;;;7.85;2.72;;;;;;;21.02;58.35;99838.92;1762341;81;21111;-83
2022/07/30 05:02:34;;;;;;;2.83;1.75;;;;;;;21.06;58.14;99828.85;1762218;80;21769;-84
2022/07/30 05:05:03;;;;;;;3.85;1.85;;;;;;;21.11;58.07;99828.03;1762148;81;21075;-82
2022/07/30 05:07:31;;;;;;;8.63;1.80;;;;;;;21.16;57.87;99839.25;1761561;81;21254;-81
2022/07/30 05:09:59;;;;;;;5.25;1.95;;;;;;;21.19;57.87;99828.81;1762057;81;21017;-81
2022/07/30 05:12:38;;;;;;;9.63;1.90;;;;;;;21.22;57.68;99828.10;1762193;80;21051;-84
2022/07/30 05:15:07;;;;;;;6.17;2.20;;;;;;;21.28;57.93;99837.48;1761970;81;21036;-80
2022/07/30 05:17:34;;;;;;;2.42;1.60;;;;;;;21.33;57.63;99832.18;1762364;81;21053;-82
2022/07/30 05:20:05;;;;;;;2.42;1.67;;;;;;;21.38;57.39;99825.61;1761789;81;20997;-82
2022/07/30 05:22:34;;;;;;;4.72;2.00;;;;;;;21.42;57.14;99827.95;1760078;81;22107;-83
2022/07/30 05:25:03;;;;;;;5.75;1.80;;;;;;;21.45;57.29;99837.10;1761919;81;21036;-83
2022/07/30 05:27:31;;;;;;;9.95;2.15;;;;;;;21.48;56.87;99834.69;1761693;81;21036;-84
2022/07/30 05:29:58;;;;;;;2.20;1.98;;;;;;;21.52;56.89;99838.38;1762357;81;21546;-84
2022/07/30 05:32:28;;;;;;;7.17;1.92;;;;;;;21.57;56.45;99838.50;1762334;81;21060;-84
2022/07/30 05:34:57;;;;;;;6.83;1.75;;;;;;;21.61;56.41;99834.64;1762264;81;21555;-83
2022/07/30 05:37:23;;;;;;;4.75;1.72;;;;;;;21.65;56.52;99837.44;1762171;81;21448;-83
2022/07/30 05:39:53;;;;;;;3.95;1.70;;;;;;;21.69;55.84;99840.27;1751442;80;20997;-84
2022/07/30 05:42:39;;;;;;;5.55;1.75;;;;;;;21.75;55.54;99847.81;1728134;83;21508;-83
2022/07/30 05:45:09;;;;;;;3.25;1.50;;;;;;;21.79;55.36;99849.31;1728047;82;21938;-85
2022/07/30 05:47:36;;;;;;;2.50;1.72;;;;;;;21.84;55.54;99847.13;1700559;82;21165;-82
2022/07/30 05:50:03;;;;;;;3.70;1.80;;;;;;;21.92;56.26;99847.02;1721088;83;21061;-84
2022/07/30 05:52:30;;;;;;;6.45;1.92;;;;;;;21.96;55.96;99848.51;1721020;83;21045;-83
2022/07/30 05:55:00;;;;;;;3.75;1.65;;;;;;;21.99;55.14;99840.20;1754981;80;21495;-82
2022/07/30 05:57:36;;;;;;;3.10;1.77;;;;;;;22.03;55.26;99843.88;1758638;81;21362;-83
2022/07/30 06:00:05;;;;;;;3.62;1.80;;;;;;;22.08;54.80;99842.19;1761913;81;21031;-83
2022/07/30 06:02:43;;;;;;;5.05;2.00;;;;;;;22.13;54.91;99845.86;1762488;81;21158;-83
2022/07/30 06:05:12;;;;;;;12.15;2.47;;;;;;;22.15;54.79;99839.39;1759210;81;21054;-83
2022/07/30 06:07:39;;;;;;;7.45;1.87;;;;;;;22.19;54.83;99842.69;1762231;81;21582;-82
2022/07/30 06:10:07;;;;;;;5.70;2.12;;;;;;;22.18;54.83;99841.84;1762540;80;21231;-82
2022/07/30 06:12:34;;;;;;;2.20;1.40;;;;;;;22.16;54.79;99846.47;1762283;80;21060;-83
2022/07/30 06:15:01;;;;;;;5.78;1.85;;;;;;;22.14;54.90;99843.06;1762206;81;20998;-84
2022/07/30 06:17:31;;;;;;;20.02;2.27;;;;;;;22.16;55.52;99843.80;1762434;80;21051;-83
2022/07/30 06:20:00;;;;;;;6.70;2.10;;;;;;;22.17;55.30;99844.14;1743749;81;20981;-83
2022/07/30 06:22:28;;;;;;;8.43;2.55;;;;;;;22.16;54.99;99841.12;1762111;81;20993;-82
2022/07/30 06:24:57;;;;;;;5.35;2.08;;;;;;;22.20;55.58;99847.93;1762173;81;21515;-83
2022/07/30 06:27:26;;;;;;;5.47;1.87;;;;;;;22.24;55.10;99841.84;1761925;81;21088;-83
2022/07/30 06:29:53;;;;;;;4.22;1.60;;;;;;;22.28;55.53;99843.81;1760802;81;21048;-81
2022/07/30 06:32:20;;;;;;;65.62;13.05;;;;;;;22.33;55.66;99844.34;1762234;81;21020;-83
2022/07/30 06:34:47;;;;;;;14.03;3.12;;;;;;;22.39;55.06;99843.84;1762705;80;21121;-82
2022/07/30 06:37:14;;;;;;;4.62;2.05;;;;;;;22.47;55.27;99849.45;1762207;81;21032;-83
2022/07/30 06:39:42;;;;;;;14.78;3.10;;;;;;;22.55;55.15;99847.02;1762437;80;21334;-83
2022/07/30 06:42:28;;;;;;;5.08;2.00;;;;;;;22.65;54.39;99843.63;1767408;81;21044;-84
2022/07/30 06:45:10;;;;;;;11.78;3.12;;;;;;;22.74;54.25;99848.23;1718872;80;21048;-84
2022/07/30 06:47:59;;;;;;;6.40;1.80;;;;;;;22.86;53.49;99841.87;1767750;81;21103;-83
2022/07/30 06:50:26;;;;;;;5.35;1.50;;;;;;;22.95;53.24;99837.61;1767817;81;21107;-82
2022/07/30 06:52:54;;;;;;;26.48;5.95;;;;;;;23.05;53.23;99837.69;1768079;81;21041;-83
2022/07/30 06:55:21;;;;;;;6.17;2.42;;;;;;;23.18;52.54;99839.77;1748448;81;21106;-83
2022/07/30 06:57:51;;;;;;;7.87;1.57;;;;;;;23.29;51.08;99835.72;1768053;81;21091;-84
2022/07/30 07:00:20;;;;;;;3.12;1.47;;;;;;;23.42;50.97;99842.74;1718412;80;21137;-81
2022/07/30 07:02:47;;;;;;;2.70;1.75;;;;;;;23.54;50.21;99841.74;1768089;81;21044;-83
2022/07/30 07:05:14;;;;;;;6.10;2.00;;;;;;;23.65;50.00;99836.30;1768287;81;21667;-84
2022/07/30 07:07:42;;;;;;;9.50;3.77;;;;;;;23.80;49.11;99840.02;1767686;81;22076;-83
2022/07/30 07:10:10;;;;;;;5.10;2.37;;;;;;;23.89;48.08;99846.01;1767956;81;21004;-82
2022/07/30 07:12:38;;;;;;;4.47;1.50;;;;;;;23.94;47.82;99834.37;1767628;81;22241;-83
2022/07/30 07:15:06;;;;;;;5.83;1.40;;;;;;;23.98;46.80;99833.11;1748407;81;21324;-81
2022/07/30 07:17:34;;;;;;;6.50;1.30;;;;;;;24.00;47.69;99828.45;1748353;81;21166;-83
2022/07/30 07:20:06;;;;;;;8.55;1.22;;;;;;;24.08;47.51;99824.61;1767913;81;21508;-83
2022/07/30 07:22:35;;;;;;;4.45;1.35;;;;;;;24.21;47.02;99827.58;1767249;81;21056;-84
2022/07/30 07:25:04;;;;;;;5.67;1.12;;;;;;;24.29;47.58;99823.73;1767841;81;21936;-84
2022/07/30 07:27:33;;;;;;;5.90;1.62;;;;;;;24.41;47.16;99819.98;1768238;81;45706;-84
2022/07/30 07:30:03;;;;;;;5.25;1.47;;;;;;;24.51;46.56;99815.12;1768064;81;21087;-83
2022/07/30 07:32:30;;;;;;;3.70;1.30;;;;;;;24.63;46.89;99816.78;1768206;80;21048;-83
2022/07/30 07:34:59;;;;;;;30.15;6.03;;;;;;;24.76;46.79;99809.80;1768068;81;21052;-84
2022/07/30 07:37:27;;;;;;;6.95;1.87;;;;;;;24.87;46.51;99818.27;1768022;81;21182;-84
2022/07/30 07:39:56;;;;;;;7.87;1.60;;;;;;;24.96;46.59;99817.42;1767870;81;21353;-84
2022/07/30 07:42:23;;;;;;;7.67;1.70;;;;;;;25.10;46.44;99814.35;1763392;81;20985;-81
2022/07/30 07:44:51;;;;;;;2.02;1.20;;;;;;;25.21;46.26;99810.66;1751783;81;21021;-81
2022/07/30 07:47:18;;;;;;;2.17;1.40;;;;;;;25.31;45.80;99809.37;1715716;82;21505;-84
2022/07/30 07:49:48;;;;;;;4.22;1.50;;;;;;;25.41;45.75;99812.91;1731683;80;21159;-85
2022/07/30 07:52:16;;;;;;;6.20;1.70;;;;;;;25.53;45.52;99808.23;1736363;82;22295;-82
2022/07/30 07:54:43;;;;;;;5.70;1.27;;;;;;;25.64;45.14;99809.91;1736938;82;21573;-81
2022/07/30 07:57:10;;;;;;;2.98;1.10;;;;;;;25.74;45.54;99808.09;1737324;82;21011;-81
2022/07/30 07:59:40;;;;;;;3.72;1.25;;;;;;;25.86;45.77;99802.87;1736932;82;20983;-85
2022/07/30 08:02:08;;;;;;;1.80;1.30;;;;;;;25.99;44.29;99807.13;1736909;82;21126;-84
2022/07/30 08:04:50;;;;;;;2.42;1.32;;;;;;;26.10;44.22;99804.28;1735767;82;21533;-84
2022/07/30 08:07:21;;;;;;;8.73;1.60;;;;;;;26.23;43.84;99806.16;1734947;82;21065;-82
2022/07/30 08:10:07;;;;;;;9.10;1.37;;;;;;;26.30;42.60;99798.33;1736584;82;21028;-85
2022/07/30 08:12:52;;;;;;;3.55;1.42;;;;;;;26.37;42.00;99798.58;1737286;82;21573;-82
2022/07/30 08:15:27;;;;;;;3.15;1.42;;;;;;;26.44;42.38;99799.17;1732485;82;21542;-84
2022/07/30 08:18:06;;;;;;;2.15;1.40;;;;;;;26.52;42.19;99799.80;1737058;82;21261;-83
2022/07/30 08:20:39;;;;;;;8.73;1.10;;;;;;;26.61;42.04;99794.86;1737252;82;20999;-84
2022/07/30 08:23:07;;;;;;;7.08;1.40;;;;;;;26.73;41.65;99796.89;1737166;82;21059;-82
2022/07/30 08:25:33;;;;;;;3.17;1.32;;;;;;;26.82;41.94;99789.73;1735830;82;20979;-81
2022/07/30 08:28:02;;;;;;;1.92;1.32;;;;;;;26.93;42.63;99786.80;1737333;82;21275;-82
2022/07/30 08:30:30;;;;;;;2.95;1.82;;;;;;;27.04;42.06;99783.89;1737043;82;21210;-83
2022/07/30 08:32:57;;;;;;;3.40;1.22;;;;;;;27.15;41.64;99775.20;1737210;82;21014;-83
2022/07/30 08:35:25;;;;;;;4.53;1.20;;;;;;;27.25;41.84;99784.08;1736615;82;21060;-82
2022/07/30 08:37:52;;;;;;;2.65;1.25;;;;;;;27.36;41.16;99778.48;1736721;82;20960;-82
2022/07/30 08:40:20;;;;;;;4.78;1.77;;;;;;;27.46;41.01;99778.92;1717334;82;21135;-81
2022/07/30 08:42:49;;;;;;;5.55;1.90;;;;;;;27.55;40.60;99769.86;1730741;82;21106;-84
2022/07/30 08:45:17;;;;;;;8.63;1.30;;;;;;;27.56;39.39;99763.47;1729867;82;21035;-83
2022/07/30 08:47:45;;;;;;;1.72;1.20;;;;;;;27.55;39.85;99759.05;1729848;82;21067;-84
2022/07/30 08:50:22;;;;;;;7.90;1.42;;;;;;;27.60;39.98;99756.72;1676482;84;21053;-83
2022/07/30 08:52:55;;;;;;;3.47;1.22;;;;;;;27.71;40.36;99756.48;1698936;82;21068;-83
2022/07/30 08:56:03;;;;;;;6.05;1.40;;;;;;;27.84;40.74;99747.09;1722070;83;21050;-83
2022/07/30 08:58:34;;;;;;;5.35;1.32;;;;;;;27.98;40.18;99751.95;1723408;83;21102;-81
2022/07/30 09:01:03;;;;;;;4.35;1.90;;;;;;;27.96;38.73;99749.92;1722665;83;20980;-80
2022/07/30 09:03:31;;;;;;;4.78;1.50;;;;;;;27.83;39.02;99748.12;1722361;83;21043;-80
2022/07/30 09:06:04;;;;;;;2.35;1.30;;;;;;;27.82;39.02;99746.41;1722533;83;22121;-84
2022/07/30 09:08:31;;;;;;;5.08;1.17;;;;;;;27.86;38.43;99740.53;1722530;83;21038;-83
2022/07/30 09:10:59;;;;;;;6.47;1.37;;;;;;;27.94;38.44;99737.91;1722613;83;21008;-82
2022/07/30 09:13:33;;;;;;;4.28;1.20;;;;;;;28.07;38.26;99741.52;1722880;83;21043;-78
2022/07/30 09:16:04;;;;;;;1.75;1.20;;;;;;;28.17;36.82;99742.75;1722598;83;21110;-81
2022/07/30 09:18:39;;;;;;;1.95;1.00;;;;;;;28.23;37.09;99735.87;1722711;83;21557;-83
2022/07/30 09:21:25;;;;;;;3.47;1.07;;;;;;;28.31;36.63;99742.64;1677933;85;21077;-83
2022/07/30 09:24:10;;;;;;;6.03;1.42;;;;;;;28.39;36.79;99735.91;1719611;83;21126;-83
2022/07/30 09:27:00;;;;;;;2.85;1.00;;;;;;;28.51;36.80;99734.63;1722535;83;21063;-82
2022/07/30 09:29:45;;;;;;;3.77;1.22;;;;;;;28.67;37.49;99733.01;1722456;83;21087;-81
2022/07/30 09:32:54;;;;;;;1.98;0.88;;;;;;;28.84;37.54;99737.44;1649613;85;21262;-84
2022/07/30 09:35:40;;;;;;;2.08;1.35;;;;;;;28.90;36.79;99739.50;1722667;83;21031;-79
2022/07/30 09:38:11;;;;;;;3.12;1.20;;;;;;;28.89;37.05;99736.95;1722645;83;21580;-83
2022/07/30 09:40:55;;;;;;;1.82;1.00;;;;;;;28.93;36.83;99730.69;1722762;83;20999;-82
2022/07/30 09:43:48;;;;;;;5.17;1.07;;;;;;;28.93;36.23;99742.87;1699328;84;21135;-81
2022/07/30 09:46:23;;;;;;;2.25;1.20;;;;;;;28.94;35.75;99732.39;1694938;84;21055;-83
2022/07/30 09:48:50;;;;;;;3.40;1.10;;;;;;;29.00;35.16;99735.77;1656892;84;21125;-82
2022/07/30 09:51:16;;;;;;;6.35;1.30;;;;;;;29.08;35.63;99724.95;1699983;84;21545;-82
2022/07/30 09:53:55;;;;;;;7.25;1.92;;;;;;;29.21;36.03;99733.45;1700020;84;21529;-82
2022/07/30 09:56:25;;;;;;;5.28;1.20;;;;;;;29.26;35.08;99731.09;1700040;84;21395;-83
2022/07/30 09:58:52;;;;;;;2.00;1.20;;;;;;;29.28;35.63;99730.41;1681678;82;21246;-83
2022/07/30 10:01:19;;;;;;;7.25;1.20;;;;;;;29.34;35.22;99730.25;1724217;82;20990;-82
2022/07/30 10:04:06;;;;;;;2.47;1.20;;;;;;;29.37;35.29;99732.63;1726109;83;21621;-83
2022/07/30 10:06:40;;;;;;;3.92;1.25;;;;;;;29.42;35.33;99739.74;1714476;83;21163;-82
2022/07/30 10:09:09;;;;;;;4.62;1.00;;;;;;;29.41;34.95;99743.46;1726568;82;21001;-83
2022/07/30 10:11:36;;;;;;;3.95;1.20;;;;;;;29.36;34.97;99733.63;1728763;83;21096;-82
2022/07/30 10:14:04;;;;;;;6.10;1.40;;;;;;;29.36;35.12;99732.80;1728786;83;20989;-81
2022/07/30 10:16:34;;;;;;;2.47;1.57;;;;;;;29.36;35.33;99735.51;1728645;83;21060;-82
2022/07/30 10:19:02;;;;;;;2.50;1.07;;;;;;;29.35;35.58;99733.80;1729008;83;21540;-82
2022/07/30 10:21:34;;;;;;;1.42;1.02;;;;;;;29.33;34.55;99733.13;1728815;83;20989;-82
2022/07/30 10:24:19;;;;;;;;;;;;;;;29.30;34.75;99732.11;1731574;83;21548;-81
2022/07/30 10:26:53;;;;;;;5.97;1.55;;;;;;;29.24;35.57;99722.29;1729253;83;20155;-83
2022/07/30 10:29:37;;;;;;;7.03;1.47;;;;;;;29.30;36.40;99732.11;1707818;82;21012;-82
2022/07/30 10:32:04;;;;;;;5.65;1.30;;;;;;;29.36;36.72;99732.80;1728925;83;21005;-83
2022/07/30 10:34:33;;;;;;;4.03;1.02;;;;;;;29.43;36.35;99724.31;1728693;83;21048;-83
2022/07/30 10:37:03;;;;;;;3.98;1.30;;;;;;;29.51;36.61;99728.91;1729009;83;21108;-82
2022/07/30 10:39:37;;;;;;;2.40;1.30;;;;;;;29.63;37.46;99724.81;1728815;83;21052;-84
2022/07/30 10:42:46;;;;;;;3.45;1.37;;;;;;;29.79;37.50;99721.24;1732340;81;21728;-82
2022/07/30 10:45:28;;;;;;;3.22;1.65;;;;;;;29.93;37.56;99723.26;1761651;81;21056;-82
2022/07/30 10:47:54;;;;;;;3.70;1.65;;;;;;;30.11;38.27;99724.40;1733443;81;21099;-81
2022/07/30 10:50:25;;;;;;;4.50;1.20;;;;;;;30.28;38.47;99717.04;1766265;81;21235;-84
2022/07/30 10:52:55;;;;;;;4.55;1.42;;;;;;;30.44;37.64;99722.09;1762239;81;21025;-82
2022/07/30 10:55:26;;;;;;;5.87;1.35;;;;;;;30.53;36.14;99719.65;1762163;81;21095;-84
2022/07/30 10:58:09;;;;;;;1.85;1.37;;;;;;;30.51;35.60;99714.91;1762457;81;21072;-82
2022/07/30 11:00:54;;;;;;;5.55;1.50;;;;;;;30.53;36.71;99716.94;1762379;80;21087;-85
2022/07/30 11:03:25;;;;;;;1.98;1.70;;;;;;;30.49;37.17;99717.80;1762018;80;21250;-83
2022/07/30 11:06:17;;;;;;;3.83;1.70;;;;;;;30.47;36.67;99712.23;1762137;81;21530;-84
2022/07/30 11:08:44;;;;;;;2.55;1.40;;;;;;;30.43;36.57;99713.59;1762214;80;21067;-84
2022/07/30 11:11:29;;;;;;;3.70;1.47;;;;;;;30.36;36.35;99702.59;1761875;81;21056;-84
2022/07/30 11:13:59;;;;;;;7.58;1.40;;;;;;;30.33;36.35;99707.02;1762497;80;21712;-82
2022/07/30 11:16:39;;;;;;;4.83;1.45;;;;;;;30.34;35.95;99706.81;1761689;81;21602;-83
2022/07/30 11:19:17;;;;;;;9.08;1.20;;;;;;;30.40;35.35;99700.41;1762149;81;20994;-83
2022/07/30 11:21:46;;;;;;;3.35;1.32;;;;;;;30.48;35.16;99694.91;1762163;80;21040;-83
2022/07/30 11:24:46;;;;;;;2.83;1.27;;;;;;;30.55;35.87;99695.91;1762724;80;21044;-81
2022/07/30 11:27:42;;;;;;;1.40;1.30;;;;;;;30.65;35.86;99691.09;1762134;80;21623;-82
2022/07/30 11:30:23;;;;;;;2.10;1.10;;;;;;;30.73;36.03;99693.76;1762418;81;21095;-84
2022/07/30 11:32:54;;;;;;;3.22;1.27;;;;;;;30.82;36.89;99690.98;1762098;80;21049;-84
2022/07/30 11:35:27;;;;;;;3.50;1.65;;;;;;;30.89;36.37;99681.08;1762507;80;21067;-84
2022/07/30 11:38:14;;;;;;;2.67;1.33;;;;;;;30.92;34.65;99688.87;1762457;81;20996;-83
2022/07/30 11:40:53;;;;;;;8.43;1.50;;;;;;;30.86;35.49;99684.16;1762289;81;20984;-82
2022/07/30 11:43:31;;;;;;;3.62;1.35;;;;;;;30.91;34.43;99683.94;1765138;80;21152;-83
2022/07/30 11:46:13;;;;;;;5.67;1.10;;;;;;;30.94;33.87;99682.77;1767784;81;20984;-81
2022/07/30 11:48:43;;;;;;;3.92;1.35;;;;;;;30.97;33.65;99675.63;1767805;81;21099;-77
2022/07/30 11:51:10;;;;;;;6.37;1.50;;;;;;;30.94;33.85;99675.98;1736778;80;21472;-81
2022/07/30 11:53:37;;;;;;;1.32;1.22;;;;;;;30.95;33.30;99665.45;1725818;83;21570;-83
2022/07/30 11:56:05;;;;;;;2.50;1.00;;;;;;;30.99;34.11;99673.56;1725938;83;21104;-84
2022/07/30 11:58:36;;;;;;;4.17;1.22;;;;;;;31.04;33.08;99664.34;1725879;83;21133;-83